• Join FlightAware (Why Join?)
  • Login
  • US Flag 
01:39AM EDT


 

Airport Tracker/Info


-or-


 

Live Flight TrackerFlight Track Log ✈ RPA3443 ✈ 10-May-2013 ✈ KDCA - KLIT

Flight Track Log - Related Links

Times and Time Zones

All times are in EDT time to prevent confusion due to time zone crossing. See the RPA3443 flight status page for this flight to view local times or setup timezone preferences in your user account.

Time Position Orientation Groundspeed Altitude Reporting Facility
EDT Latitude Longitude Course Direction KTS MPH feet Rate Location/Type
02:11PM 38.8333 -77.0333 270° West 157 181 1,100  Level Potomac TRACON
02:12PM 38.7833 -77.0333 180° South 198 228 2,100 1,680 Climbing Potomac TRACON
02:13PM 38.7333 -77.0667 207° Southwest 253 291 4,400 1,920 Climbing Potomac TRACON
02:14PM 38.8500 -77.5374 270° West  Level FlightAware Approximate
02:14PM 38.7167 -77.1500 256° West 258 297 6,000  Level Potomac TRACON
02:15PM 38.8500 -77.6634 270° West  Level FlightAware Approximate
02:16PM 38.8501 -77.7894 270° West  Level FlightAware Approximate
02:16PM 38.7692 -77.3464 289° West 254 292 11,100  Level Washington Center
02:17PM 38.7825 -77.4453 280° West 267 307 13,400 2,040 Climbing Washington Center
02:18PM 38.7911 -77.5439 276° West 275 316 15,200 1,920 Climbing Washington Center
02:19PM 38.8019 -77.6508 277° West 288 331 17,300 1,800 Climbing Washington Center
02:20PM 38.8106 -77.7603 276° West 299 344 18,900 1,620 Climbing Washington Center
02:21PM 38.8231 -77.8753 278° West 314 361 20,600 1,500 Climbing Washington Center
02:22PM 38.8333 -77.9847 277° West 314 361 22,000 660 Climbing Washington Center
02:23PM 38.8433 -78.1022 276° West 319 367 22,000  Level Washington Center
02:24PM 38.8536 -78.2172 277° West 324 373 22,000 60 Level Washington Center
02:25PM 38.8531 -78.3319 270° West 329 379 22,200 780 Climbing Washington Center
02:26PM 38.8522 -78.4519 270° West 329 379 23,600 1,620 Climbing Washington Center
02:27PM 38.8517 -78.5664 270° West 329 379 25,500 1,620 Climbing Washington Center
02:28PM 38.8506 -78.6917 269° West 334 384 26,900 780 Climbing Washington Center
02:29PM 38.8472 -78.8142 268° West 345 397 27,100 720 Climbing Washington Center
02:30PM 38.8458 -78.9394 269° West 345 397 28,400 1,560 Climbing Washington Center
02:31PM 38.8425 -79.0644 268° West 345 397 30,200 1,680 Climbing Washington Center
02:32PM 38.8431 -79.1819 270° West 345 397 31,900 900 Climbing Washington Center
02:33PM 38.8250 -79.2956 259° West 339 390 32,000  Climbing Washington Center
02:34PM 38.8047 -79.4117 257° West 339 390 32,000  Level Washington Center
02:35PM 38.7822 -79.5306 256° West 339 390 32,000  Level Washington Center
02:36PM 38.7636 -79.6492 259° West 339 390 32,000  Level Washington Center
02:37PM 38.7383 -79.7783 256° West 344 396 32,000  Level Washington Center
02:38PM 38.7175 -79.8942 257° West 344 396 32,000  Level Washington Center
02:39PM 38.6947 -80.0100 256° West 344 396 32,000  Level Washington Center
02:40PM 38.6758 -80.1206 258° West 339 390 32,000  Level Washington Center
02:41PM 38.6611 -80.1744 251° West 342 394 32,000  Level Indianapolis Center
02:42PM 38.6386 -80.2914 256° West 340 391 32,000  Level Indianapolis Center
02:43PM 38.6164 -80.4089 256° West 342 394 32,000  Level Indianapolis Center
02:44PM 38.5931 -80.5267 256° West 342 394 32,000  Level Indianapolis Center
02:45PM 38.5286 -80.6231 229° Southwest 351 404 32,000  Level Indianapolis Center
02:46PM 38.4653 -80.7172 229° Southwest 349 402 32,000  Level Indianapolis Center
02:47PM 38.3897 -80.8319 230° Southwest 350 403 32,000  Level Indianapolis Center
02:48PM 38.3267 -80.9264 230° Southwest 349 402 32,000  Level Indianapolis Center
02:49PM 38.2642 -81.0208 230° Southwest 348 400 32,000  Level Indianapolis Center
02:50PM 38.2017 -81.1158 230° Southwest 348 400 32,000  Level Indianapolis Center
02:51PM 38.1406 -81.2106 231° Southwest 348 400 32,000  Level Indianapolis Center
02:52PM 38.0847 -81.3128 235° Southwest 349 402 32,000  Level Indianapolis Center
02:53PM 38.0317 -81.4147 237° Southwest 346 398 32,000  Level Indianapolis Center
02:54PM 37.9669 -81.5361 236° Southwest 345 397 32,000  Level Indianapolis Center
02:55PM 37.9164 -81.6403 238° Southwest 346 398 32,000  Level Indianapolis Center
02:56PM 37.8728 -81.7511 244° Southwest 349 402 32,000  Level Indianapolis Center
02:57PM 37.8269 -81.8539 241° Southwest 348 400 32,000  Level Indianapolis Center
02:58PM 37.7775 -81.9789 243° Southwest 340 391 32,000  Level Indianapolis Center
03:00PM 37.7500 -82.0900 253° West 332 382 32,000  Level Indianapolis Center
03:01PM 37.7233 -82.2017 253° West 333 383 32,000  Level Indianapolis Center
03:02PM 37.6944 -82.3133 252° West 335 386 32,000  Level Indianapolis Center
03:03PM 37.6667 -82.4256 253° West 335 386 32,000  Level Indianapolis Center
03:04PM 37.6331 -82.5569 252° West 338 389 32,000  Level Indianapolis Center
03:05PM 37.6036 -82.6678 251° West 337 388 32,000  Level Indianapolis Center
03:06PM 37.5758 -82.7786 252° West 335 386 32,000  Level Indianapolis Center
03:07PM 37.5469 -82.8892 252° West 334 384 32,000  Level Indianapolis Center
03:08PM 37.5175 -83.0000 252° West 334 384 32,000  Level Indianapolis Center
03:09PM 37.4839 -83.1303 252° West 337 388 32,000  Level Indianapolis Center
03:10PM 37.4550 -83.2417 252° West 336 387 32,000  Level Indianapolis Center
03:11PM 37.4250 -83.3519 251° West 335 386 32,000  Level Indianapolis Center
03:12PM 37.3969 -83.4636 252° West 335 386 32,000  Level Indianapolis Center
03:13PM 37.3667 -83.5736 251° West 335 386 32,000  Level Indianapolis Center
03:14PM 37.3328 -83.7019 252° West 333 383 32,000  Level Indianapolis Center
03:15PM 37.3025 -83.8108 251° West 332 382 32,000  Level Indianapolis Center
03:16PM 37.2725 -83.9214 251° West 334 384 32,000  Level Indianapolis Center
03:17PM 37.2439 -84.0325 252° West 335 386 32,000  Level Indianapolis Center
03:18PM 37.2131 -84.1414 250° West 333 383 32,000  Level Indianapolis Center
03:19PM 37.1836 -84.2525 252° West 334 384 32,000  Level Indianapolis Center
03:20PM 37.1483 -84.3781 251° West 330 380 32,000  Level Indianapolis Center
03:21PM 37.1194 -84.4872 252° West 330 380 32,000  Level Indianapolis Center
03:22PM 37.0883 -84.5956 250° West 332 382 32,000  Level Indianapolis Center
03:23PM 37.0578 -84.7058 251° West 335 386 32,000  Level Indianapolis Center
03:24PM 37.0264 -84.8206 251° West 335 386 32,000  Level Indianapolis Center
03:25PM 36.9967 -84.9269 251° West 328 377 32,000  Level Indianapolis Center
03:26PM 36.9658 -85.0358 251° West 332 382 32,000  Level Indianapolis Center
03:27PM 36.9294 -85.1622 250° West 326 375 32,000  Level Indianapolis Center
03:28PM 36.8994 -85.2681 251° West 322 371 32,000  Level Indianapolis Center
03:29PM 36.8700 -85.3739 251° West 320 368 32,000  Level Indianapolis Center
03:30PM 36.8511 -85.4411 251° West 318 366 32,000  Level Memphis Center
03:31PM 36.8256 -85.5308 250° West 318 366 32,000  Level Memphis Center
03:32PM 36.7942 -85.6364 250° West 312 359 32,000  Level Memphis Center
03:33PM 36.7647 -85.7392 250° West 318 366 32,000  Level Memphis Center
03:34PM 36.7369 -85.8392 251° West 318 366 32,000  Level Memphis Center
03:35PM 36.7075 -85.9417 250° West 313 360 32,000  Level Memphis Center
03:36PM 36.6775 -86.0417 250° West 313 360 32,000  Level Memphis Center
03:37PM 36.6458 -86.1467 249° West 313 360 32,000  Level Memphis Center
03:38PM 36.6139 -86.2544 250° West 313 360 32,000  Level Memphis Center
03:39PM 36.5839 -86.3567 250° West 313 360 32,000  Level Memphis Center
03:40PM 36.5536 -86.4564 249° West 313 360 32,000  Level Memphis Center
03:41PM 36.5256 -86.5558 251° West 313 360 32,000  Level Memphis Center
03:42PM 36.4931 -86.6581 248° West 313 360 32,000  Level Memphis Center
03:43PM 36.4650 -86.7600 251° West 313 360 32,000  Level Memphis Center
03:44PM 36.4344 -86.8644 250° West 318 366 32,000  Level Memphis Center
03:45PM 36.4042 -86.9689 250° West 318 366 32,000  Level Memphis Center
03:46PM 36.3717 -87.0758 249° West 332 382 32,000  Level Memphis Center
03:47PM 36.3408 -87.1750 249° West 326 375 32,000  Level Memphis Center
03:48PM 36.3078 -87.2742 248° West 310 357 32,000  Level Memphis Center
03:49PM 36.2769 -87.3758 249° West 315 362 32,000  Level Memphis Center
03:50PM 36.2481 -87.4747 250° West 315 362 32,000  Level Memphis Center
03:51PM 36.2169 -87.5708 248° West 315 362 32,000  Level Memphis Center
03:52PM 36.1878 -87.6722 250° West 310 357 32,000  Level Memphis Center
03:53PM 36.1544 -87.7711 247° West 316 364 32,000  Level Memphis Center
03:54PM 36.1272 -87.8592 249° West 316 364 32,000  Level Memphis Center
03:55PM 36.0978 -87.9578 250° West 311 358 32,000  Level Memphis Center
03:56PM 36.0664 -88.0564 249° West 316 364 32,000  Level Memphis Center
03:57PM 36.0328 -88.1625 249° West 310 357 32,000  Level Memphis Center
03:58PM 36.0011 -88.2633 249° West 310 357 32,000  Level Memphis Center
03:59PM 35.9694 -88.3592 248° West 315 362 32,000  Level Memphis Center
04:00PM 35.9375 -88.4597 249° West 315 362 32,000  Level Memphis Center
04:01PM 35.9078 -88.5578 250° West 315 362 32,000  Level Memphis Center
04:02PM 35.8736 -88.6533 246° West 315 362 32,000  Level Memphis Center
04:03PM 35.8436 -88.7514 249° West 315 362 32,000  Level Memphis Center
04:04PM 35.8117 -88.8492 248° West 315 362 32,000  Level Memphis Center
04:05PM 35.7772 -88.9472 247° West 315 362 32,000  Level Memphis Center
04:06PM 35.7472 -89.0475 250° West 315 362 32,000  Level Memphis Center
04:07PM 35.7147 -89.1450 248° West 315 362 32,000  Level Memphis Center
04:08PM 35.6883 -89.2247 248° West 315 362 32,000  Level Memphis Center
04:09PM 35.6581 -89.3325 251° West 305 351 32,000  Level Memphis Center
04:10PM 35.6256 -89.4325 248° West 310 357 32,000  Level Memphis Center
04:11PM 35.5928 -89.5325 248° West 316 364 32,000  Level Memphis Center
04:12PM 35.5600 -89.6297 248° West 310 357 32,000  Level Memphis Center
04:13PM 35.5272 -89.7294 248° West 316 364 32,000  Level Memphis Center
04:14PM 35.4964 -89.8267 249° West 316 364 32,000  Level Memphis Center
04:15PM 35.4592 -89.9339 247° West 311 358 32,000  Level Memphis Center
04:16PM 35.4283 -90.0308 249° West 311 358 32,000  Level Memphis Center
04:17PM 35.3950 -90.1278 247° West 311 358 32,000  Level Memphis Center
04:18PM 35.3619 -90.2247 247° West 311 358 32,000 -180 Level Memphis Center
04:19PM 35.3306 -90.3189 248° West 311 358 31,700 -1,020 Descending Memphis Center
04:20PM 35.2972 -90.4156 247° West 311 358 30,000 -1,740 Descending Memphis Center
04:21PM 35.2639 -90.5147 248° West 316 364 28,300 -1,680 Descending Memphis Center
04:22PM 35.2303 -90.6139 247° West 316 364 26,700 -1,680 Descending Memphis Center
04:23PM 35.1967 -90.7103 247° West 316 364 25,000 -1,680 Descending Memphis Center
04:24PM 35.1650 -90.8067 248° West 310 357 23,400 -1,680 Descending Memphis Center
04:25PM 35.1314 -90.9031 247° West 310 357 21,700 -1,800 Descending Memphis Center
04:26PM 35.0975 -90.9992 247° West 310 357 19,900 -1,800 Descending Memphis Center
04:27PM 35.0636 -91.0928 246° West 310 357 18,200 -1,680 Descending Memphis Center
04:28PM 35.0361 -91.1711 247° West 291 335 16,800 -1,680 Descending Memphis Center
04:29PM 35.0019 -91.2647 246° West 288 331 15,000 -1,320 Descending Memphis Center
04:30PM 34.9806 -91.3481 253° West 286 329 14,000 -1,260 Descending Memphis Center
04:31PM 34.9547 -91.4389 251° West 255 293 12,500 -1,440 Descending Memphis Center
04:32PM 34.9372 -91.5222 256° West 252 290 11,200 -1,200 Descending Memphis Center
04:33PM 34.9136 -91.6106 252° West 244 281 10,000 -600 Descending Memphis Center
04:34PM 34.8981 -91.6864 256° West 242 278 10,000 -540 Level Memphis Center
04:35PM 34.8742 -91.7669 250° West 248 285 9,000 -1,320 Descending Memphis Center
04:36PM 34.8608 -91.8378 257° West 247 284 7,500 -1,620 Descending Memphis Center
04:37PM 34.8411 -91.9158 253° West 242 278 6,000 -1,560 Descending Memphis Center
04:38PM 34.8214 -91.9914 252° West 242 278 4,400 -1,560 Descending Memphis Center
04:39PM 34.8017 -92.0667 252° West 232 267 3,000 -1,320 Descending Memphis Center
04:40PM 34.7861 -92.1297 253° West 201 231 1,900 -1,020 Descending Memphis Center
04:41PM 34.7586 -92.1722 232° Southwest 133 153 1,000 -480 Descending Memphis Center
04:42PM 34.7367 -92.2425 249° West 194 223 1,000  Level Memphis Center